sensor_id;sensor_type;location;lat;lon;timestamp;P1;durP1;ratioP1;P2;durP2;ratioP2
3995;SDS011;2012;49.794;9.722;2022-09-17T00:00:53;2.80;;;1.00;;
3995;SDS011;2012;49.794;9.722;2022-09-17T00:03:20;2.90;;;1.20;;
3995;SDS011;2012;49.794;9.722;2022-09-17T00:05:48;4.17;;;1.70;;
3995;SDS011;2012;49.794;9.722;2022-09-17T00:08:14;3.60;;;1.00;;
3995;SDS011;2012;49.794;9.722;2022-09-17T00:10:42;3.33;;;1.60;;
3995;SDS011;2012;49.794;9.722;2022-09-17T00:13:09;3.33;;;1.47;;
3995;SDS011;2012;49.794;9.722;2022-09-17T00:15:43;2.27;;;1.30;;
3995;SDS011;2012;49.794;9.722;2022-09-17T00:18:12;3.90;;;1.50;;
3995;SDS011;2012;49.794;9.722;2022-09-17T00:20:40;4.90;;;1.57;;
3995;SDS011;2012;49.794;9.722;2022-09-17T00:23:09;5.83;;;1.50;;
3995;SDS011;2012;49.794;9.722;2022-09-17T00:25:43;2.20;;;1.40;;
3995;SDS011;2012;49.794;9.722;2022-09-17T00:28:11;2.53;;;1.37;;
3995;SDS011;2012;49.794;9.722;2022-09-17T00:30:43;4.67;;;1.20;;
3995;SDS011;2012;49.794;9.722;2022-09-17T00:33:11;10.03;;;1.67;;
3995;SDS011;2012;49.794;9.722;2022-09-17T00:35:39;7.90;;;1.57;;
3995;SDS011;2012;49.794;9.722;2022-09-17T00:38:06;2.10;;;1.30;;
3995;SDS011;2012;49.794;9.722;2022-09-17T00:40:33;6.00;;;1.60;;
3995;SDS011;2012;49.794;9.722;2022-09-17T00:43:00;4.20;;;1.50;;
3995;SDS011;2012;49.794;9.722;2022-09-17T00:45:27;3.47;;;1.50;;
3995;SDS011;2012;49.794;9.722;2022-09-17T00:47:58;5.20;;;1.27;;
3995;SDS011;2012;49.794;9.722;2022-09-17T00:53:16;2.40;;;1.13;;
3995;SDS011;2012;49.794;9.722;2022-09-17T00:55:48;5.93;;;1.47;;
3995;SDS011;2012;49.794;9.722;2022-09-17T00:58:27;3.00;;;1.40;;
3995;SDS011;2012;49.794;9.722;2022-09-17T01:00:54;7.90;;;1.63;;
3995;SDS011;2012;49.794;9.722;2022-09-17T01:03:21;5.57;;;1.40;;
3995;SDS011;2012;49.794;9.722;2022-09-17T01:06:02;4.80;;;1.40;;
3995;SDS011;2012;49.794;9.722;2022-09-17T01:09:01;3.57;;;1.10;;
3995;SDS011;2012;49.794;9.722;2022-09-17T01:25:23;3.80;;;1.50;;
3995;SDS011;2012;49.794;9.722;2022-09-17T01:28:27;5.67;;;1.70;;
3995;SDS011;2012;49.794;9.722;2022-09-17T01:31:23;5.70;;;1.80;;
3995;SDS011;2012;49.794;9.722;2022-09-17T01:36:42;5.53;;;1.67;;
3995;SDS011;2012;49.794;9.722;2022-09-17T01:42:03;6.90;;;1.60;;
3995;SDS011;2012;49.794;9.722;2022-09-17T01:47:15;10.43;;;1.70;;
3995;SDS011;2012;49.794;9.722;2022-09-17T01:49:47;6.93;;;1.67;;
3995;SDS011;2012;49.794;9.722;2022-09-17T01:52:17;2.10;;;1.30;;
3995;SDS011;2012;49.794;9.722;2022-09-17T01:54:46;6.37;;;1.67;;
3995;SDS011;2012;49.794;9.722;2022-09-17T02:00:08;4.13;;;1.40;;
3995;SDS011;2012;49.794;9.722;2022-09-17T02:02:56;4.03;;;1.50;;
3995;SDS011;2012;49.794;9.722;2022-09-17T02:07:57;3.87;;;1.30;;
3995;SDS011;2012;49.794;9.722;2022-09-17T02:10:37;5.60;;;1.90;;
3995;SDS011;2012;49.794;9.722;2022-09-17T02:13:10;6.13;;;1.77;;
3995;SDS011;2012;49.794;9.722;2022-09-17T02:15:43;4.10;;;1.60;;
3995;SDS011;2012;49.794;9.722;2022-09-17T02:18:19;13.73;;;1.97;;
3995;SDS011;2012;49.794;9.722;2022-09-17T02:20:51;11.13;;;1.63;;
3995;SDS011;2012;49.794;9.722;2022-09-17T02:23:46;9.27;;;1.87;;
3995;SDS011;2012;49.794;9.722;2022-09-17T02:26:20;2.43;;;1.20;;
3995;SDS011;2012;49.794;9.722;2022-09-17T02:28:50;3.43;;;1.10;;
3995;SDS011;2012;49.794;9.722;2022-09-17T02:31:22;3.80;;;1.40;;
3995;SDS011;2012;49.794;9.722;2022-09-17T02:33:50;7.70;;;1.80;;
3995;SDS011;2012;49.794;9.722;2022-09-17T02:36:20;4.50;;;1.43;;
3995;SDS011;2012;49.794;9.722;2022-09-17T02:38:47;7.90;;;1.83;;
3995;SDS011;2012;49.794;9.722;2022-09-17T02:41:15;7.13;;;1.67;;
3995;SDS011;2012;49.794;9.722;2022-09-17T02:46:38;7.00;;;1.60;;
3995;SDS011;2012;49.794;9.722;2022-09-17T02:49:35;3.40;;;1.20;;
3995;SDS011;2012;49.794;9.722;2022-09-17T02:54:40;6.50;;;1.33;;
3995;SDS011;2012;49.794;9.722;2022-09-17T02:57:37;10.17;;;1.40;;
3995;SDS011;2012;49.794;9.722;2022-09-17T03:00:16;8.00;;;1.73;;
3995;SDS011;2012;49.794;9.722;2022-09-17T03:02:49;11.37;;;2.10;;
3995;SDS011;2012;49.794;9.722;2022-09-17T03:05:21;8.93;;;1.63;;
3995;SDS011;2012;49.794;9.722;2022-09-17T03:07:50;5.63;;;1.40;;
3995;SDS011;2012;49.794;9.722;2022-09-17T03:10:17;9.33;;;2.60;;
3995;SDS011;2012;49.794;9.722;2022-09-17T03:12:45;6.50;;;1.83;;
3995;SDS011;2012;49.794;9.722;2022-09-17T03:15:11;5.07;;;1.30;;
3995;SDS011;2012;49.794;9.722;2022-09-17T03:17:38;9.60;;;1.40;;
3995;SDS011;2012;49.794;9.722;2022-09-17T03:20:05;3.97;;;1.57;;
3995;SDS011;2012;49.794;9.722;2022-09-17T03:22:32;7.57;;;1.80;;
3995;SDS011;2012;49.794;9.722;2022-09-17T03:24:59;8.07;;;1.47;;
3995;SDS011;2012;49.794;9.722;2022-09-17T03:27:25;4.10;;;1.20;;
3995;SDS011;2012;49.794;9.722;2022-09-17T03:29:52;4.57;;;1.57;;
3995;SDS011;2012;49.794;9.722;2022-09-17T03:32:19;5.30;;;1.57;;
3995;SDS011;2012;49.794;9.722;2022-09-17T03:34:45;23.53;;;3.03;;
3995;SDS011;2012;49.794;9.722;2022-09-17T03:37:12;4.40;;;2.00;;
3995;SDS011;2012;49.794;9.722;2022-09-17T03:39:39;7.47;;;1.53;;
3995;SDS011;2012;49.794;9.722;2022-09-17T03:42:05;6.87;;;1.70;;
3995;SDS011;2012;49.794;9.722;2022-09-17T03:44:32;12.73;;;1.77;;
3995;SDS011;2012;49.794;9.722;2022-09-17T03:46:59;4.00;;;1.47;;
3995;SDS011;2012;49.794;9.722;2022-09-17T03:49:26;7.60;;;1.97;;
3995;SDS011;2012;49.794;9.722;2022-09-17T03:51:52;9.07;;;1.97;;
3995;SDS011;2012;49.794;9.722;2022-09-17T03:54:19;9.03;;;1.70;;
3995;SDS011;2012;49.794;9.722;2022-09-17T03:56:46;4.20;;;1.83;;
3995;SDS011;2012;49.794;9.722;2022-09-17T03:59:13;10.30;;;1.60;;
3995;SDS011;2012;49.794;9.722;2022-09-17T04:01:39;16.07;;;2.20;;
3995;SDS011;2012;49.794;9.722;2022-09-17T04:04:06;8.37;;;1.83;;
3995;SDS011;2012;49.794;9.722;2022-09-17T04:06:33;7.80;;;1.70;;
3995;SDS011;2012;49.794;9.722;2022-09-17T04:09:00;7.53;;;1.93;;
3995;SDS011;2012;49.794;9.722;2022-09-17T04:11:29;8.40;;;2.00;;
3995;SDS011;2012;49.794;9.722;2022-09-17T04:13:56;6.97;;;1.87;;
3995;SDS011;2012;49.794;9.722;2022-09-17T04:16:23;10.53;;;1.90;;
3995;SDS011;2012;49.794;9.722;2022-09-17T04:18:50;9.20;;;1.73;;
3995;SDS011;2012;49.794;9.722;2022-09-17T04:21:16;14.23;;;2.40;;
3995;SDS011;2012;49.794;9.722;2022-09-17T04:23:43;9.23;;;1.77;;
3995;SDS011;2012;49.794;9.722;2022-09-17T04:26:10;10.90;;;2.97;;
3995;SDS011;2012;49.794;9.722;2022-09-17T04:28:36;6.70;;;2.20;;
3995;SDS011;2012;49.794;9.722;2022-09-17T04:31:03;7.70;;;1.90;;
3995;SDS011;2012;49.794;9.722;2022-09-17T04:33:30;4.60;;;1.77;;
3995;SDS011;2012;49.794;9.722;2022-09-17T04:35:56;5.10;;;2.17;;
3995;SDS011;2012;49.794;9.722;2022-09-17T04:38:23;6.30;;;1.93;;
3995;SDS011;2012;49.794;9.722;2022-09-17T04:40:50;6.47;;;1.67;;
3995;SDS011;2012;49.794;9.722;2022-09-17T04:43:17;9.30;;;2.17;;
3995;SDS011;2012;49.794;9.722;2022-09-17T04:45:44;15.87;;;2.60;;
3995;SDS011;2012;49.794;9.722;2022-09-17T04:48:12;6.53;;;1.80;;
3995;SDS011;2012;49.794;9.722;2022-09-17T04:50:38;8.30;;;2.13;;
3995;SDS011;2012;49.794;9.722;2022-09-17T04:53:05;9.53;;;2.20;;
3995;SDS011;2012;49.794;9.722;2022-09-17T04:55:32;9.43;;;2.10;;
3995;SDS011;2012;49.794;9.722;2022-09-17T04:57:59;10.47;;;2.10;;
3995;SDS011;2012;49.794;9.722;2022-09-17T05:00:25;4.33;;;1.97;;
3995;SDS011;2012;49.794;9.722;2022-09-17T05:02:53;6.80;;;2.10;;
3995;SDS011;2012;49.794;9.722;2022-09-17T05:05:21;9.30;;;2.00;;
3995;SDS011;2012;49.794;9.722;2022-09-17T05:07:48;5.50;;;2.60;;
3995;SDS011;2012;49.794;9.722;2022-09-17T05:10:16;4.60;;;1.90;;
3995;SDS011;2012;49.794;9.722;2022-09-17T05:12:48;4.47;;;1.90;;
3995;SDS011;2012;49.794;9.722;2022-09-17T05:15:16;4.30;;;1.63;;
3995;SDS011;2012;49.794;9.722;2022-09-17T05:17:43;6.20;;;1.60;;
3995;SDS011;2012;49.794;9.722;2022-09-17T05:20:10;5.40;;;2.33;;
3995;SDS011;2012;49.794;9.722;2022-09-17T05:22:41;2.40;;;1.67;;
3995;SDS011;2012;49.794;9.722;2022-09-17T05:25:10;3.13;;;1.83;;
3995;SDS011;2012;49.794;9.722;2022-09-17T05:27:38;4.90;;;1.93;;
3995;SDS011;2012;49.794;9.722;2022-09-17T05:30:05;5.07;;;2.73;;
3995;SDS011;2012;49.794;9.722;2022-09-17T05:32:34;6.50;;;2.33;;
3995;SDS011;2012;49.794;9.722;2022-09-17T05:35:02;5.23;;;2.10;;
3995;SDS011;2012;49.794;9.722;2022-09-17T05:37:31;8.73;;;1.93;;
3995;SDS011;2012;49.794;9.722;2022-09-17T05:39:57;6.57;;;2.20;;
3995;SDS011;2012;49.794;9.722;2022-09-17T05:42:24;3.90;;;1.40;;
3995;SDS011;2012;49.794;9.722;2022-09-17T05:44:51;5.23;;;1.90;;
3995;SDS011;2012;49.794;9.722;2022-09-17T05:47:18;9.50;;;1.87;;
3995;SDS011;2012;49.794;9.722;2022-09-17T05:49:44;5.77;;;2.10;;
3995;SDS011;2012;49.794;9.722;2022-09-17T05:52:11;3.43;;;1.50;;
3995;SDS011;2012;49.794;9.722;2022-09-17T05:54:38;6.03;;;1.30;;
3995;SDS011;2012;49.794;9.722;2022-09-17T05:57:04;1.83;;;1.40;;
3995;SDS011;2012;49.794;9.722;2022-09-17T05:59:31;7.20;;;1.73;;
3995;SDS011;2012;49.794;9.722;2022-09-17T06:01:58;4.30;;;1.80;;
3995;SDS011;2012;49.794;9.722;2022-09-17T06:04:25;3.80;;;1.50;;
3995;SDS011;2012;49.794;9.722;2022-09-17T06:06:53;4.07;;;1.37;;
3995;SDS011;2012;49.794;9.722;2022-09-17T06:09:20;3.40;;;1.50;;
3995;SDS011;2012;49.794;9.722;2022-09-17T06:11:47;6.43;;;1.40;;
3995;SDS011;2012;49.794;9.722;2022-09-17T06:14:13;3.87;;;1.40;;
3995;SDS011;2012;49.794;9.722;2022-09-17T06:16:41;5.10;;;1.60;;
3995;SDS011;2012;49.794;9.722;2022-09-17T06:19:08;2.40;;;1.10;;
3995;SDS011;2012;49.794;9.722;2022-09-17T06:21:34;2.00;;;1.40;;
3995;SDS011;2012;49.794;9.722;2022-09-17T06:24:01;3.50;;;1.40;;
3995;SDS011;2012;49.794;9.722;2022-09-17T06:26:28;2.70;;;1.67;;
3995;SDS011;2012;49.794;9.722;2022-09-17T06:28:55;2.63;;;1.57;;
3995;SDS011;2012;49.794;9.722;2022-09-17T06:31:23;1.87;;;1.47;;
3995;SDS011;2012;49.794;9.722;2022-09-17T06:33:50;3.10;;;1.70;;
3995;SDS011;2012;49.794;9.722;2022-09-17T06:36:19;3.17;;;1.30;;
3995;SDS011;2012;49.794;9.722;2022-09-17T06:38:45;3.53;;;1.40;;
3995;SDS011;2012;49.794;9.722;2022-09-17T06:41:12;8.87;;;3.57;;
3995;SDS011;2012;49.794;9.722;2022-09-17T06:43:40;7.33;;;1.80;;
3995;SDS011;2012;49.794;9.722;2022-09-17T06:46:06;5.50;;;2.10;;
3995;SDS011;2012;49.794;9.722;2022-09-17T06:48:35;4.87;;;2.40;;
3995;SDS011;2012;49.794;9.722;2022-09-17T06:51:04;8.60;;;1.80;;
3995;SDS011;2012;49.794;9.722;2022-09-17T06:53:33;2.90;;;1.70;;
3995;SDS011;2012;49.794;9.722;2022-09-17T06:56:02;4.03;;;1.90;;
3995;SDS011;2012;49.794;9.722;2022-09-17T06:58:32;5.17;;;1.93;;
3995;SDS011;2012;49.794;9.722;2022-09-17T07:01:02;3.73;;;2.30;;
3995;SDS011;2012;49.794;9.722;2022-09-17T07:03:30;13.30;;;2.30;;
3995;SDS011;2012;49.794;9.722;2022-09-17T07:05:57;5.87;;;2.83;;
3995;SDS011;2012;49.794;9.722;2022-09-17T07:08:24;4.60;;;1.90;;
3995;SDS011;2012;49.794;9.722;2022-09-17T07:10:54;4.23;;;1.83;;
3995;SDS011;2012;49.794;9.722;2022-09-17T07:13:22;5.90;;;2.07;;
3995;SDS011;2012;49.794;9.722;2022-09-17T07:15:53;9.30;;;2.80;;
3995;SDS011;2012;49.794;9.722;2022-09-17T07:18:21;8.30;;;2.47;;
3995;SDS011;2012;49.794;9.722;2022-09-17T07:20:55;7.10;;;2.70;;
3995;SDS011;2012;49.794;9.722;2022-09-17T07:23:25;4.07;;;1.90;;
3995;SDS011;2012;49.794;9.722;2022-09-17T07:25:53;5.00;;;2.23;;
3995;SDS011;2012;49.794;9.722;2022-09-17T07:28:21;6.00;;;2.00;;
3995;SDS011;2012;49.794;9.722;2022-09-17T07:30:49;6.30;;;2.13;;
3995;SDS011;2012;49.794;9.722;2022-09-17T07:33:17;10.60;;;3.60;;
3995;SDS011;2012;49.794;9.722;2022-09-17T07:35:54;5.77;;;2.23;;
3995;SDS011;2012;49.794;9.722;2022-09-17T07:38:26;11.70;;;1.97;;
3995;SDS011;2012;49.794;9.722;2022-09-17T07:40:58;14.80;;;2.10;;
3995;SDS011;2012;49.794;9.722;2022-09-17T07:43:27;8.03;;;2.30;;
3995;SDS011;2012;49.794;9.722;2022-09-17T07:45:55;9.33;;;2.10;;
3995;SDS011;2012;49.794;9.722;2022-09-17T07:48:23;6.90;;;2.10;;
3995;SDS011;2012;49.794;9.722;2022-09-17T07:50:51;10.83;;;2.13;;
3995;SDS011;2012;49.794;9.722;2022-09-17T07:53:17;12.50;;;2.83;;
3995;SDS011;2012;49.794;9.722;2022-09-17T07:55:54;7.20;;;2.90;;
3995;SDS011;2012;49.794;9.722;2022-09-17T07:58:28;9.60;;;2.40;;
3995;SDS011;2012;49.794;9.722;2022-09-17T08:01:03;6.30;;;2.73;;
3995;SDS011;2012;49.794;9.722;2022-09-17T08:03:34;10.57;;;3.00;;
3995;SDS011;2012;49.794;9.722;2022-09-17T08:06:02;7.00;;;2.70;;
3995;SDS011;2012;49.794;9.722;2022-09-17T08:08:34;5.20;;;2.30;;
3995;SDS011;2012;49.794;9.722;2022-09-17T08:11:03;7.40;;;2.43;;
3995;SDS011;2012;49.794;9.722;2022-09-17T08:14:03;8.67;;;2.93;;
3995;SDS011;2012;49.794;9.722;2022-09-17T08:16:29;4.70;;;2.30;;
3995;SDS011;2012;49.794;9.722;2022-09-17T08:18:56;12.07;;;3.37;;
3995;SDS011;2012;49.794;9.722;2022-09-17T08:21:23;7.63;;;2.33;;
3995;SDS011;2012;49.794;9.722;2022-09-17T08:23:50;9.40;;;3.07;;
3995;SDS011;2012;49.794;9.722;2022-09-17T08:26:18;9.67;;;2.90;;
3995;SDS011;2012;49.794;9.722;2022-09-17T08:28:48;9.10;;;3.60;;
3995;SDS011;2012;49.794;9.722;2022-09-17T08:31:17;6.33;;;2.70;;
3995;SDS011;2012;49.794;9.722;2022-09-17T08:33:44;11.07;;;2.90;;
3995;SDS011;2012;49.794;9.722;2022-09-17T08:36:12;4.00;;;2.80;;
3995;SDS011;2012;49.794;9.722;2022-09-17T08:38:41;8.40;;;3.27;;
3995;SDS011;2012;49.794;9.722;2022-09-17T08:46:52;11.20;;;3.67;;
3995;SDS011;2012;49.794;9.722;2022-09-17T08:49:29;15.33;;;3.70;;
3995;SDS011;2012;49.794;9.722;2022-09-17T08:54:49;13.83;;;4.03;;
3995;SDS011;2012;49.794;9.722;2022-09-17T08:57:26;10.00;;;3.93;;
3995;SDS011;2012;49.794;9.722;2022-09-17T09:02:45;12.13;;;3.50;;
3995;SDS011;2012;49.794;9.722;2022-09-17T09:05:44;9.50;;;3.23;;
3995;SDS011;2012;49.794;9.722;2022-09-17T09:10:51;10.03;;;3.30;;
3995;SDS011;2012;49.794;9.722;2022-09-17T09:13:28;13.40;;;3.93;;
3995;SDS011;2012;49.794;9.722;2022-09-17T09:16:05;15.47;;;3.70;;
3995;SDS011;2012;49.794;9.722;2022-09-17T09:18:42;10.80;;;3.40;;
3995;SDS011;2012;49.794;9.722;2022-09-17T09:21:25;17.50;;;4.20;;
3995;SDS011;2012;49.794;9.722;2022-09-17T09:24:21;14.13;;;4.27;;
3995;SDS011;2012;49.794;9.722;2022-09-17T09:30:02;17.30;;;3.57;;
3995;SDS011;2012;49.794;9.722;2022-09-17T09:35:26;7.20;;;3.00;;
3995;SDS011;2012;49.794;9.722;2022-09-17T09:40:42;12.10;;;4.70;;
3995;SDS011;2012;49.794;9.722;2022-09-17T09:43:13;14.27;;;2.93;;
3995;SDS011;2012;49.794;9.722;2022-09-17T09:45:49;10.60;;;3.40;;
3995;SDS011;2012;49.794;9.722;2022-09-17T09:48:37;12.70;;;2.67;;
3995;SDS011;2012;49.794;9.722;2022-09-17T09:51:15;6.27;;;3.00;;
3995;SDS011;2012;49.794;9.722;2022-09-17T09:59:24;5.10;;;1.90;;
3995;SDS011;2012;49.794;9.722;2022-09-17T10:01:51;3.73;;;1.90;;
3995;SDS011;2012;49.794;9.722;2022-09-17T10:04:22;7.90;;;1.80;;
3995;SDS011;2012;49.794;9.722;2022-09-17T10:06:52;6.40;;;2.60;;
3995;SDS011;2012;49.794;9.722;2022-09-17T10:09:33;6.03;;;2.70;;
3995;SDS011;2012;49.794;9.722;2022-09-17T10:12:03;10.30;;;3.57;;
3995;SDS011;2012;49.794;9.722;2022-09-17T10:14:42;5.70;;;2.27;;
3995;SDS011;2012;49.794;9.722;2022-09-17T10:22:36;8.27;;;2.47;;
3995;SDS011;2012;49.794;9.722;2022-09-17T10:25:05;6.77;;;2.10;;
3995;SDS011;2012;49.794;9.722;2022-09-17T10:27:45;8.97;;;1.83;;
3995;SDS011;2012;49.794;9.722;2022-09-17T10:30:14;4.13;;;1.70;;
3995;SDS011;2012;49.794;9.722;2022-09-17T10:32:42;6.77;;;1.83;;
3995;SDS011;2012;49.794;9.722;2022-09-17T10:42:43;7.20;;;2.50;;
3995;SDS011;2012;49.794;9.722;2022-09-17T10:45:24;11.07;;;2.10;;
3995;SDS011;2012;49.794;9.722;2022-09-17T10:47:52;5.27;;;2.13;;
3995;SDS011;2012;49.794;9.722;2022-09-17T10:50:28;6.63;;;2.00;;
3995;SDS011;2012;49.794;9.722;2022-09-17T10:53:06;8.17;;;2.27;;
3995;SDS011;2012;49.794;9.722;2022-09-17T10:56:42;8.10;;;2.00;;
3995;SDS011;2012;49.794;9.722;2022-09-17T11:10:07;7.73;;;2.13;;
3995;SDS011;2012;49.794;9.722;2022-09-17T11:20:55;6.67;;;1.93;;
3995;SDS011;2012;49.794;9.722;2022-09-17T11:23:55;9.50;;;1.77;;
3995;SDS011;2012;49.794;9.722;2022-09-17T11:35:24;5.37;;;1.63;;
3995;SDS011;2012;49.794;9.722;2022-09-17T11:37:56;3.10;;;1.33;;
3995;SDS011;2012;49.794;9.722;2022-09-17T11:40:31;5.80;;;1.80;;
3995;SDS011;2012;49.794;9.722;2022-09-17T11:43:13;5.83;;;1.53;;
3995;SDS011;2012;49.794;9.722;2022-09-17T11:46:16;6.33;;;1.80;;
3995;SDS011;2012;49.794;9.722;2022-09-17T11:48:52;4.90;;;2.10;;
3995;SDS011;2012;49.794;9.722;2022-09-17T11:51:31;2.33;;;1.57;;
3995;SDS011;2012;49.794;9.722;2022-09-17T11:54:06;7.53;;;1.60;;
3995;SDS011;2012;49.794;9.722;2022-09-17T11:56:50;9.53;;;2.23;;
3995;SDS011;2012;49.794;9.722;2022-09-17T12:01:54;12.33;;;2.30;;
3995;SDS011;2012;49.794;9.722;2022-09-17T12:04:33;4.83;;;1.67;;
3995;SDS011;2012;49.794;9.722;2022-09-17T12:09:59;3.77;;;1.73;;
3995;SDS011;2012;49.794;9.722;2022-09-17T12:12:43;6.63;;;1.60;;
3995;SDS011;2012;49.794;9.722;2022-09-17T12:15:19;8.73;;;1.90;;
3995;SDS011;2012;49.794;9.722;2022-09-17T12:17:53;4.37;;;1.40;;
3995;SDS011;2012;49.794;9.722;2022-09-17T12:20:59;9.87;;;1.73;;
3995;SDS011;2012;49.794;9.722;2022-09-17T12:37:47;5.60;;;1.40;;
3995;SDS011;2012;49.794;9.722;2022-09-17T12:43:00;6.13;;;1.73;;
3995;SDS011;2012;49.794;9.722;2022-09-17T12:50:49;5.33;;;1.57;;
3995;SDS011;2012;49.794;9.722;2022-09-17T12:59:17;4.00;;;1.27;;
3995;SDS011;2012;49.794;9.722;2022-09-17T13:01:54;3.70;;;1.10;;
3995;SDS011;2012;49.794;9.722;2022-09-17T13:04:34;6.40;;;1.37;;
3995;SDS011;2012;49.794;9.722;2022-09-17T13:20:59;5.20;;;2.03;;
3995;SDS011;2012;49.794;9.722;2022-09-17T13:23:33;5.23;;;1.43;;
3995;SDS011;2012;49.794;9.722;2022-09-17T13:26:06;7.03;;;1.57;;
3995;SDS011;2012;49.794;9.722;2022-09-17T13:28:38;10.10;;;1.50;;
3995;SDS011;2012;49.794;9.722;2022-09-17T13:34:02;6.23;;;1.70;;
3995;SDS011;2012;49.794;9.722;2022-09-17T13:36:36;5.73;;;1.40;;
3995;SDS011;2012;49.794;9.722;2022-09-17T13:39:04;5.80;;;1.50;;
3995;SDS011;2012;49.794;9.722;2022-09-17T13:41:34;3.73;;;1.10;;
3995;SDS011;2012;49.794;9.722;2022-09-17T13:44:04;6.93;;;1.30;;
3995;SDS011;2012;49.794;9.722;2022-09-17T13:46:32;5.73;;;1.20;;
3995;SDS011;2012;49.794;9.722;2022-09-17T13:49:01;4.03;;;1.10;;
3995;SDS011;2012;49.794;9.722;2022-09-17T13:53:59;4.03;;;1.20;;
3995;SDS011;2012;49.794;9.722;2022-09-17T13:56:45;5.00;;;1.30;;
3995;SDS011;2012;49.794;9.722;2022-09-17T14:01:55;6.80;;;2.90;;
3995;SDS011;2012;49.794;9.722;2022-09-17T14:04:44;3.03;;;0.93;;
3995;SDS011;2012;49.794;9.722;2022-09-17T14:09:58;4.10;;;1.30;;
3995;SDS011;2012;49.794;9.722;2022-09-17T14:15:35;7.77;;;1.63;;
3995;SDS011;2012;49.794;9.722;2022-09-17T14:20:54;9.67;;;1.30;;
3995;SDS011;2012;49.794;9.722;2022-09-17T14:23:52;4.33;;;0.90;;
3995;SDS011;2012;49.794;9.722;2022-09-17T14:30:05;6.30;;;1.27;;
3995;SDS011;2012;49.794;9.722;2022-09-17T14:33:07;10.77;;;1.10;;
3995;SDS011;2012;49.794;9.722;2022-09-17T14:38:09;4.40;;;1.20;;
3995;SDS011;2012;49.794;9.722;2022-09-17T14:40:58;4.17;;;1.30;;
3995;SDS011;2012;49.794;9.722;2022-09-17T14:49:10;2.30;;;1.00;;
3995;SDS011;2012;49.794;9.722;2022-09-17T14:51:56;8.33;;;1.23;;
3995;SDS011;2012;49.794;9.722;2022-09-17T14:54:33;7.97;;;1.20;;
3995;SDS011;2012;49.794;9.722;2022-09-17T14:57:02;4.80;;;1.13;;
3995;SDS011;2012;49.794;9.722;2022-09-17T14:59:53;2.70;;;1.00;;
3995;SDS011;2012;49.794;9.722;2022-09-17T15:04:58;4.00;;;1.10;;
3995;SDS011;2012;49.794;9.722;2022-09-17T15:07:27;6.73;;;1.17;;
3995;SDS011;2012;49.794;9.722;2022-09-17T15:09:53;6.00;;;1.40;;
3995;SDS011;2012;49.794;9.722;2022-09-17T15:12:31;7.00;;;1.20;;
3995;SDS011;2012;49.794;9.722;2022-09-17T15:14:57;2.90;;;0.93;;
3995;SDS011;2012;49.794;9.722;2022-09-17T15:17:24;4.30;;;1.30;;
3995;SDS011;2012;49.794;9.722;2022-09-17T15:19:52;4.30;;;1.10;;
3995;SDS011;2012;49.794;9.722;2022-09-17T15:22:23;3.07;;;1.00;;
3995;SDS011;2012;49.794;9.722;2022-09-17T15:24:55;3.63;;;1.93;;
3995;SDS011;2012;49.794;9.722;2022-09-17T15:27:28;1.47;;;0.97;;
3995;SDS011;2012;49.794;9.722;2022-09-17T15:32:49;8.63;;;0.93;;
3995;SDS011;2012;49.794;9.722;2022-09-17T15:35:22;4.63;;;1.00;;
3995;SDS011;2012;49.794;9.722;2022-09-17T15:38:03;8.30;;;0.97;;
3995;SDS011;2012;49.794;9.722;2022-09-17T15:40:49;2.17;;;0.90;;
3995;SDS011;2012;49.794;9.722;2022-09-17T15:43:26;1.77;;;0.80;;
3995;SDS011;2012;49.794;9.722;2022-09-17T15:45:56;3.30;;;0.80;;
3995;SDS011;2012;49.794;9.722;2022-09-17T15:58:26;2.07;;;0.70;;
3995;SDS011;2012;49.794;9.722;2022-09-17T16:01:17;5.90;;;0.83;;
3995;SDS011;2012;49.794;9.722;2022-09-17T16:08:44;3.50;;;0.90;;
3995;SDS011;2012;49.794;9.722;2022-09-17T16:11:25;2.70;;;0.80;;
3995;SDS011;2012;49.794;9.722;2022-09-17T16:13:55;0.90;;;0.70;;
3995;SDS011;2012;49.794;9.722;2022-09-17T16:16:36;1.87;;;0.80;;
3995;SDS011;2012;49.794;9.722;2022-09-17T16:19:03;2.30;;;0.80;;
3995;SDS011;2012;49.794;9.722;2022-09-17T16:21:31;1.10;;;0.80;;
3995;SDS011;2012;49.794;9.722;2022-09-17T16:23:58;2.80;;;0.87;;
3995;SDS011;2012;49.794;9.722;2022-09-17T16:26:28;3.03;;;1.10;;
3995;SDS011;2012;49.794;9.722;2022-09-17T16:28:58;2.20;;;1.03;;
3995;SDS011;2012;49.794;9.722;2022-09-17T16:31:29;1.57;;;0.80;;
3995;SDS011;2012;49.794;9.722;2022-09-17T16:33:57;3.10;;;1.10;;
3995;SDS011;2012;49.794;9.722;2022-09-17T16:36:24;1.40;;;0.80;;
3995;SDS011;2012;49.794;9.722;2022-09-17T16:38:51;2.60;;;0.97;;
3995;SDS011;2012;49.794;9.722;2022-09-17T16:41:17;3.20;;;0.93;;
3995;SDS011;2012;49.794;9.722;2022-09-17T16:43:44;2.13;;;0.87;;
3995;SDS011;2012;49.794;9.722;2022-09-17T16:46:11;4.80;;;1.03;;
3995;SDS011;2012;49.794;9.722;2022-09-17T16:48:38;5.33;;;1.33;;
3995;SDS011;2012;49.794;9.722;2022-09-17T16:51:09;3.77;;;1.43;;
3995;SDS011;2012;49.794;9.722;2022-09-17T16:53:37;3.90;;;1.00;;
3995;SDS011;2012;49.794;9.722;2022-09-17T16:56:05;1.53;;;0.93;;
3995;SDS011;2012;49.794;9.722;2022-09-17T16:58:32;4.50;;;0.93;;
3995;SDS011;2012;49.794;9.722;2022-09-17T17:01:12;4.60;;;1.17;;
3995;SDS011;2012;49.794;9.722;2022-09-17T17:03:41;6.10;;;1.37;;
3995;SDS011;2012;49.794;9.722;2022-09-17T17:06:14;2.60;;;0.80;;
3995;SDS011;2012;49.794;9.722;2022-09-17T17:08:44;4.57;;;0.80;;
3995;SDS011;2012;49.794;9.722;2022-09-17T17:11:12;4.43;;;1.23;;
3995;SDS011;2012;49.794;9.722;2022-09-17T17:13:40;5.30;;;0.83;;
3995;SDS011;2012;49.794;9.722;2022-09-17T17:16:08;1.67;;;1.00;;
3995;SDS011;2012;49.794;9.722;2022-09-17T17:18:37;2.10;;;1.10;;
3995;SDS011;2012;49.794;9.722;2022-09-17T17:21:05;2.80;;;1.03;;
3995;SDS011;2012;49.794;9.722;2022-09-17T17:23:36;2.60;;;0.80;;
3995;SDS011;2012;49.794;9.722;2022-09-17T17:26:03;1.63;;;0.90;;
3995;SDS011;2012;49.794;9.722;2022-09-17T17:28:30;5.30;;;1.20;;
3995;SDS011;2012;49.794;9.722;2022-09-17T17:30:57;1.83;;;1.00;;
3995;SDS011;2012;49.794;9.722;2022-09-17T17:33:24;5.73;;;1.10;;
3995;SDS011;2012;49.794;9.722;2022-09-17T17:35:51;2.13;;;1.30;;
3995;SDS011;2012;49.794;9.722;2022-09-17T17:38:17;3.77;;;1.03;;
3995;SDS011;2012;49.794;9.722;2022-09-17T17:40:44;7.03;;;0.90;;
3995;SDS011;2012;49.794;9.722;2022-09-17T17:43:11;3.00;;;1.17;;
3995;SDS011;2012;49.794;9.722;2022-09-17T17:45:38;2.97;;;1.10;;
3995;SDS011;2012;49.794;9.722;2022-09-17T17:48:05;5.17;;;0.97;;
3995;SDS011;2012;49.794;9.722;2022-09-17T17:50:32;3.47;;;1.10;;
3995;SDS011;2012;49.794;9.722;2022-09-17T17:52:59;3.73;;;0.90;;
3995;SDS011;2012;49.794;9.722;2022-09-17T17:55:25;7.83;;;2.40;;
3995;SDS011;2012;49.794;9.722;2022-09-17T17:57:55;1.87;;;1.10;;
3995;SDS011;2012;49.794;9.722;2022-09-17T18:00:26;3.87;;;0.90;;
3995;SDS011;2012;49.794;9.722;2022-09-17T18:02:53;2.17;;;1.30;;
3995;SDS011;2012;49.794;9.722;2022-09-17T18:05:20;2.20;;;0.83;;
3995;SDS011;2012;49.794;9.722;2022-09-17T18:07:47;2.20;;;0.97;;
3995;SDS011;2012;49.794;9.722;2022-09-17T18:10:14;1.37;;;0.80;;
3995;SDS011;2012;49.794;9.722;2022-09-17T18:12:41;2.07;;;1.00;;
3995;SDS011;2012;49.794;9.722;2022-09-17T18:15:15;2.30;;;0.80;;
3995;SDS011;2012;49.794;9.722;2022-09-17T18:17:42;2.43;;;0.90;;
3995;SDS011;2012;49.794;9.722;2022-09-17T18:20:09;2.80;;;0.90;;
3995;SDS011;2012;49.794;9.722;2022-09-17T18:22:36;2.27;;;0.80;;
3995;SDS011;2012;49.794;9.722;2022-09-17T18:25:02;4.30;;;1.50;;
3995;SDS011;2012;49.794;9.722;2022-09-17T18:27:29;7.70;;;1.00;;
3995;SDS011;2012;49.794;9.722;2022-09-17T18:29:56;4.37;;;1.27;;
3995;SDS011;2012;49.794;9.722;2022-09-17T18:32:23;1.73;;;1.20;;
3995;SDS011;2012;49.794;9.722;2022-09-17T18:34:49;4.40;;;2.10;;
3995;SDS011;2012;49.794;9.722;2022-09-17T18:37:16;5.87;;;1.67;;
3995;SDS011;2012;49.794;9.722;2022-09-17T18:39:43;6.03;;;1.40;;
3995;SDS011;2012;49.794;9.722;2022-09-17T18:42:23;2.20;;;1.20;;
3995;SDS011;2012;49.794;9.722;2022-09-17T18:44:50;4.77;;;1.10;;
3995;SDS011;2012;49.794;9.722;2022-09-17T18:47:17;6.87;;;1.40;;
3995;SDS011;2012;49.794;9.722;2022-09-17T18:49:43;2.30;;;1.10;;
3995;SDS011;2012;49.794;9.722;2022-09-17T18:52:10;2.93;;;1.10;;
3995;SDS011;2012;49.794;9.722;2022-09-17T18:54:37;2.97;;;1.00;;
3995;SDS011;2012;49.794;9.722;2022-09-17T18:57:04;4.00;;;1.00;;
3995;SDS011;2012;49.794;9.722;2022-09-17T18:59:31;2.30;;;1.13;;
3995;SDS011;2012;49.794;9.722;2022-09-17T19:01:58;9.03;;;1.23;;